sensor_id;sensor_type;location;lat;lon;timestamp;temperature;humidity
7530;DHT22;3806;52.270;10.544;2023-07-28T00:00:06;18.80;99.90
7530;DHT22;3806;52.270;10.544;2023-07-28T00:02:32;18.80;99.90
7530;DHT22;3806;52.270;10.544;2023-07-28T00:04:58;18.80;99.90
7530;DHT22;3806;52.270;10.544;2023-07-28T00:07:23;18.80;99.90
7530;DHT22;3806;52.270;10.544;2023-07-28T00:09:49;18.80;99.90
7530;DHT22;3806;52.270;10.544;2023-07-28T00:12:14;18.80;99.90
7530;DHT22;3806;52.270;10.544;2023-07-28T00:14:40;18.80;99.90
7530;DHT22;3806;52.270;10.544;2023-07-28T00:17:06;18.80;99.90
7530;DHT22;3806;52.270;10.544;2023-07-28T00:19:31;18.80;99.90
7530;DHT22;3806;52.270;10.544;2023-07-28T00:21:57;18.80;99.90
7530;DHT22;3806;52.270;10.544;2023-07-28T00:24:22;18.80;99.90
7530;DHT22;3806;52.270;10.544;2023-07-28T00:26:48;18.80;99.90
7530;DHT22;3806;52.270;10.544;2023-07-28T00:29:13;18.80;99.90
7530;DHT22;3806;52.270;10.544;2023-07-28T00:31:39;18.90;99.90
7530;DHT22;3806;52.270;10.544;2023-07-28T00:34:04;18.80;99.90
7530;DHT22;3806;52.270;10.544;2023-07-28T00:36:33;18.80;99.90
7530;DHT22;3806;52.270;10.544;2023-07-28T00:38:58;18.80;99.90
7530;DHT22;3806;52.270;10.544;2023-07-28T00:41:24;18.80;99.90
7530;DHT22;3806;52.270;10.544;2023-07-28T00:43:50;18.80;99.90
7530;DHT22;3806;52.270;10.544;2023-07-28T00:46:16;18.80;99.90
7530;DHT22;3806;52.270;10.544;2023-07-28T00:48:42;18.80;99.90
7530;DHT22;3806;52.270;10.544;2023-07-28T00:51:09;18.90;99.90
7530;DHT22;3806;52.270;10.544;2023-07-28T00:53:35;18.80;99.90
7530;DHT22;3806;52.270;10.544;2023-07-28T00:56:01;18.80;99.90
7530;DHT22;3806;52.270;10.544;2023-07-28T00:58:27;18.80;99.90
7530;DHT22;3806;52.270;10.544;2023-07-28T01:00:52;18.80;99.90
7530;DHT22;3806;52.270;10.544;2023-07-28T01:03:20;18.80;99.90
7530;DHT22;3806;52.270;10.544;2023-07-28T01:06:06;18.80;99.90
7530;DHT22;3806;52.270;10.544;2023-07-28T01:08:44;18.80;99.90
7530;DHT22;3806;52.270;10.544;2023-07-28T01:11:11;18.80;99.90
7530;DHT22;3806;52.270;10.544;2023-07-28T01:13:36;18.80;99.90
7530;DHT22;3806;52.270;10.544;2023-07-28T01:16:02;18.80;99.90
7530;DHT22;3806;52.270;10.544;2023-07-28T01:18:28;18.80;99.90
7530;DHT22;3806;52.270;10.544;2023-07-28T01:20:56;18.80;99.90
7530;DHT22;3806;52.270;10.544;2023-07-28T01:26:15;18.80;99.90
7530;DHT22;3806;52.270;10.544;2023-07-28T01:28:43;18.80;99.90
7530;DHT22;3806;52.270;10.544;2023-07-28T01:31:09;18.90;99.90
7530;DHT22;3806;52.270;10.544;2023-07-28T01:33:35;18.90;99.90
7530;DHT22;3806;52.270;10.544;2023-07-28T01:36:01;18.90;99.90
7530;DHT22;3806;52.270;10.544;2023-07-28T01:38:27;18.80;99.90
7530;DHT22;3806;52.270;10.544;2023-07-28T01:40:53;18.80;99.90
7530;DHT22;3806;52.270;10.544;2023-07-28T01:43:18;18.80;99.90
7530;DHT22;3806;52.270;10.544;2023-07-28T01:45:44;18.80;99.90
7530;DHT22;3806;52.270;10.544;2023-07-28T01:48:10;18.80;99.90
7530;DHT22;3806;52.270;10.544;2023-07-28T01:50:36;18.80;99.90
7530;DHT22;3806;52.270;10.544;2023-07-28T01:53:02;18.80;99.90
7530;DHT22;3806;52.270;10.544;2023-07-28T01:55:28;18.80;99.90
7530;DHT22;3806;52.270;10.544;2023-07-28T01:57:58;18.80;99.90
7530;DHT22;3806;52.270;10.544;2023-07-28T02:00:24;18.80;99.90
7530;DHT22;3806;52.270;10.544;2023-07-28T02:02:51;18.80;99.90
7530;DHT22;3806;52.270;10.544;2023-07-28T02:05:17;18.80;99.90
7530;DHT22;3806;52.270;10.544;2023-07-28T02:07:42;18.80;99.90
7530;DHT22;3806;52.270;10.544;2023-07-28T02:10:09;18.90;99.90
7530;DHT22;3806;52.270;10.544;2023-07-28T02:12:36;18.80;99.90
7530;DHT22;3806;52.270;10.544;2023-07-28T02:15:01;18.80;99.90
7530;DHT22;3806;52.270;10.544;2023-07-28T02:17:27;18.80;99.90
7530;DHT22;3806;52.270;10.544;2023-07-28T02:19:52;18.80;99.90
7530;DHT22;3806;52.270;10.544;2023-07-28T02:22:18;18.90;99.90
7530;DHT22;3806;52.270;10.544;2023-07-28T02:24:43;18.90;99.90
7530;DHT22;3806;52.270;10.544;2023-07-28T02:27:09;18.80;99.90
7530;DHT22;3806;52.270;10.544;2023-07-28T02:29:34;18.90;99.90
7530;DHT22;3806;52.270;10.544;2023-07-28T02:32:00;18.90;99.90
7530;DHT22;3806;52.270;10.544;2023-07-28T02:34:25;18.90;99.90
7530;DHT22;3806;52.270;10.544;2023-07-28T02:36:51;18.90;99.90
7530;DHT22;3806;52.270;10.544;2023-07-28T02:39:16;18.90;99.90
7530;DHT22;3806;52.270;10.544;2023-07-28T02:41:42;18.90;99.90
7530;DHT22;3806;52.270;10.544;2023-07-28T02:44:08;18.80;99.90
7530;DHT22;3806;52.270;10.544;2023-07-28T02:46:33;18.80;99.90
7530;DHT22;3806;52.270;10.544;2023-07-28T02:48:59;18.80;99.90
7530;DHT22;3806;52.270;10.544;2023-07-28T02:51:24;18.80;99.90
7530;DHT22;3806;52.270;10.544;2023-07-28T02:53:50;18.80;99.90
7530;DHT22;3806;52.270;10.544;2023-07-28T02:56:15;18.80;99.90
7530;DHT22;3806;52.270;10.544;2023-07-28T02:58:41;18.80;99.90
7530;DHT22;3806;52.270;10.544;2023-07-28T03:01:06;18.80;99.90
7530;DHT22;3806;52.270;10.544;2023-07-28T03:03:32;18.80;99.90
7530;DHT22;3806;52.270;10.544;2023-07-28T03:05:57;18.80;99.90
7530;DHT22;3806;52.270;10.544;2023-07-28T03:08:23;18.80;99.90
7530;DHT22;3806;52.270;10.544;2023-07-28T03:10:48;18.80;99.90
7530;DHT22;3806;52.270;10.544;2023-07-28T03:13:14;18.80;99.90
7530;DHT22;3806;52.270;10.544;2023-07-28T03:15:39;18.80;99.90
7530;DHT22;3806;52.270;10.544;2023-07-28T03:18:05;18.80;99.90
7530;DHT22;3806;52.270;10.544;2023-07-28T03:20:30;18.80;99.90
7530;DHT22;3806;52.270;10.544;2023-07-28T03:22:56;18.80;99.90
7530;DHT22;3806;52.270;10.544;2023-07-28T03:25:21;18.80;99.90
7530;DHT22;3806;52.270;10.544;2023-07-28T03:27:47;18.80;99.90
7530;DHT22;3806;52.270;10.544;2023-07-28T03:30:14;18.80;99.90
7530;DHT22;3806;52.270;10.544;2023-07-28T03:32:39;18.80;99.90
7530;DHT22;3806;52.270;10.544;2023-07-28T03:35:05;18.80;99.90
7530;DHT22;3806;52.270;10.544;2023-07-28T03:37:32;18.80;99.90
7530;DHT22;3806;52.270;10.544;2023-07-28T03:39:58;18.80;99.90
7530;DHT22;3806;52.270;10.544;2023-07-28T03:42:24;18.80;99.90
7530;DHT22;3806;52.270;10.544;2023-07-28T03:44:50;18.80;99.90
7530;DHT22;3806;52.270;10.544;2023-07-28T03:47:15;18.90;99.90
7530;DHT22;3806;52.270;10.544;2023-07-28T03:49:41;18.90;99.90
7530;DHT22;3806;52.270;10.544;2023-07-28T03:52:06;18.90;99.90
7530;DHT22;3806;52.270;10.544;2023-07-28T03:54:32;18.90;99.90
7530;DHT22;3806;52.270;10.544;2023-07-28T03:56:58;18.90;99.90
7530;DHT22;3806;52.270;10.544;2023-07-28T03:59:23;18.90;99.90
7530;DHT22;3806;52.270;10.544;2023-07-28T04:01:49;18.90;99.90
7530;DHT22;3806;52.270;10.544;2023-07-28T04:04:14;18.90;99.90
7530;DHT22;3806;52.270;10.544;2023-07-28T04:06:45;18.90;99.90
7530;DHT22;3806;52.270;10.544;2023-07-28T04:09:13;18.90;99.90
7530;DHT22;3806;52.270;10.544;2023-07-28T04:11:40;19.00;99.90
7530;DHT22;3806;52.270;10.544;2023-07-28T04:14:05;18.90;99.90
7530;DHT22;3806;52.270;10.544;2023-07-28T04:16:31;19.00;99.90
7530;DHT22;3806;52.270;10.544;2023-07-28T04:18:57;19.00;99.90
7530;DHT22;3806;52.270;10.544;2023-07-28T04:21:23;18.90;99.90
7530;DHT22;3806;52.270;10.544;2023-07-28T04:23:48;19.00;99.90
7530;DHT22;3806;52.270;10.544;2023-07-28T04:26:14;19.00;99.90
7530;DHT22;3806;52.270;10.544;2023-07-28T04:28:39;19.00;99.90
7530;DHT22;3806;52.270;10.544;2023-07-28T04:31:05;19.00;99.90
7530;DHT22;3806;52.270;10.544;2023-07-28T04:33:31;18.90;99.90
7530;DHT22;3806;52.270;10.544;2023-07-28T04:35:56;18.90;99.90
7530;DHT22;3806;52.270;10.544;2023-07-28T04:38:21;18.90;99.90
7530;DHT22;3806;52.270;10.544;2023-07-28T04:40:47;18.90;99.90
7530;DHT22;3806;52.270;10.544;2023-07-28T04:43:12;18.90;99.90
7530;DHT22;3806;52.270;10.544;2023-07-28T04:45:38;18.90;99.90
7530;DHT22;3806;52.270;10.544;2023-07-28T04:48:04;18.90;99.90
7530;DHT22;3806;52.270;10.544;2023-07-28T04:50:29;18.90;99.90
7530;DHT22;3806;52.270;10.544;2023-07-28T04:52:55;18.90;99.90
7530;DHT22;3806;52.270;10.544;2023-07-28T04:55:20;19.00;99.90
7530;DHT22;3806;52.270;10.544;2023-07-28T04:57:46;19.00;99.90
7530;DHT22;3806;52.270;10.544;2023-07-28T05:00:12;19.00;99.90
7530;DHT22;3806;52.270;10.544;2023-07-28T05:02:38;19.00;99.90
7530;DHT22;3806;52.270;10.544;2023-07-28T05:05:09;19.10;99.90
7530;DHT22;3806;52.270;10.544;2023-07-28T05:07:35;19.10;99.90
7530;DHT22;3806;52.270;10.544;2023-07-28T05:10:00;19.10;99.90
7530;DHT22;3806;52.270;10.544;2023-07-28T05:12:26;19.10;99.90
7530;DHT22;3806;52.270;10.544;2023-07-28T05:14:51;19.10;99.90
7530;DHT22;3806;52.270;10.544;2023-07-28T05:17:17;19.10;99.90
7530;DHT22;3806;52.270;10.544;2023-07-28T05:19:43;19.10;99.90
7530;DHT22;3806;52.270;10.544;2023-07-28T05:22:09;19.20;99.90
7530;DHT22;3806;52.270;10.544;2023-07-28T05:24:34;19.20;99.90
7530;DHT22;3806;52.270;10.544;2023-07-28T05:27:00;19.20;99.90
7530;DHT22;3806;52.270;10.544;2023-07-28T05:29:25;19.20;99.90
7530;DHT22;3806;52.270;10.544;2023-07-28T05:31:51;19.20;99.90
7530;DHT22;3806;52.270;10.544;2023-07-28T05:34:16;19.20;99.90
7530;DHT22;3806;52.270;10.544;2023-07-28T05:36:43;19.30;99.90
7530;DHT22;3806;52.270;10.544;2023-07-28T05:39:08;19.30;99.90
7530;DHT22;3806;52.270;10.544;2023-07-28T05:41:34;19.30;99.90
7530;DHT22;3806;52.270;10.544;2023-07-28T05:43:59;19.30;99.90
7530;DHT22;3806;52.270;10.544;2023-07-28T05:46:25;19.30;99.90
7530;DHT22;3806;52.270;10.544;2023-07-28T05:48:51;19.30;99.90
7530;DHT22;3806;52.270;10.544;2023-07-28T05:51:16;19.30;99.90
7530;DHT22;3806;52.270;10.544;2023-07-28T05:53:42;19.30;99.90
7530;DHT22;3806;52.270;10.544;2023-07-28T05:56:07;19.30;99.90
7530;DHT22;3806;52.270;10.544;2023-07-28T05:58:33;19.30;99.90
7530;DHT22;3806;52.270;10.544;2023-07-28T06:00:58;19.30;99.90
7530;DHT22;3806;52.270;10.544;2023-07-28T06:03:24;19.20;99.90
7530;DHT22;3806;52.270;10.544;2023-07-28T06:05:52;19.20;99.90
7530;DHT22;3806;52.270;10.544;2023-07-28T06:08:17;19.20;99.90
7530;DHT22;3806;52.270;10.544;2023-07-28T06:10:43;19.30;99.90
7530;DHT22;3806;52.270;10.544;2023-07-28T06:13:08;19.30;99.90
7530;DHT22;3806;52.270;10.544;2023-07-28T06:15:34;19.30;99.90
7530;DHT22;3806;52.270;10.544;2023-07-28T06:18:01;19.30;99.90
7530;DHT22;3806;52.270;10.544;2023-07-28T06:20:28;19.30;99.90
7530;DHT22;3806;52.270;10.544;2023-07-28T06:22:54;19.30;99.90
7530;DHT22;3806;52.270;10.544;2023-07-28T06:25:20;19.30;99.90
7530;DHT22;3806;52.270;10.544;2023-07-28T06:27:46;19.30;99.90
7530;DHT22;3806;52.270;10.544;2023-07-28T06:30:12;19.40;99.90
7530;DHT22;3806;52.270;10.544;2023-07-28T06:32:37;19.40;99.90
7530;DHT22;3806;52.270;10.544;2023-07-28T06:35:03;19.40;99.90
7530;DHT22;3806;52.270;10.544;2023-07-28T06:37:29;19.40;99.90
7530;DHT22;3806;52.270;10.544;2023-07-28T06:39:54;19.40;99.90
7530;DHT22;3806;52.270;10.544;2023-07-28T06:42:21;19.40;99.90
7530;DHT22;3806;52.270;10.544;2023-07-28T06:44:50;19.40;99.90
7530;DHT22;3806;52.270;10.544;2023-07-28T06:47:16;19.50;99.90
7530;DHT22;3806;52.270;10.544;2023-07-28T06:49:42;19.60;99.90
7530;DHT22;3806;52.270;10.544;2023-07-28T06:52:07;19.50;99.90
7530;DHT22;3806;52.270;10.544;2023-07-28T06:54:33;19.60;99.90
7530;DHT22;3806;52.270;10.544;2023-07-28T06:56:59;19.60;99.90
7530;DHT22;3806;52.270;10.544;2023-07-28T06:59:24;19.60;99.90
7530;DHT22;3806;52.270;10.544;2023-07-28T07:01:50;19.60;99.90
7530;DHT22;3806;52.270;10.544;2023-07-28T07:04:16;19.60;99.90
7530;DHT22;3806;52.270;10.544;2023-07-28T07:06:41;19.60;99.90
7530;DHT22;3806;52.270;10.544;2023-07-28T07:09:07;19.70;99.90
7530;DHT22;3806;52.270;10.544;2023-07-28T07:11:33;19.70;99.90
7530;DHT22;3806;52.270;10.544;2023-07-28T07:13:59;19.80;99.90
7530;DHT22;3806;52.270;10.544;2023-07-28T07:16:24;19.80;99.90
7530;DHT22;3806;52.270;10.544;2023-07-28T07:18:51;19.80;99.90
7530;DHT22;3806;52.270;10.544;2023-07-28T07:21:16;19.90;99.90
7530;DHT22;3806;52.270;10.544;2023-07-28T07:23:42;20.00;99.90
7530;DHT22;3806;52.270;10.544;2023-07-28T07:26:07;20.10;99.90
7530;DHT22;3806;52.270;10.544;2023-07-28T07:28:33;20.10;99.90
7530;DHT22;3806;52.270;10.544;2023-07-28T07:31:03;20.20;99.90
7530;DHT22;3806;52.270;10.544;2023-07-28T07:33:29;20.30;99.90
7530;DHT22;3806;52.270;10.544;2023-07-28T07:35:55;20.40;99.90
7530;DHT22;3806;52.270;10.544;2023-07-28T07:38:21;20.40;99.90
7530;DHT22;3806;52.270;10.544;2023-07-28T07:40:47;20.40;99.90
7530;DHT22;3806;52.270;10.544;2023-07-28T07:43:16;20.40;99.90
7530;DHT22;3806;52.270;10.544;2023-07-28T07:45:45;20.40;99.90
7530;DHT22;3806;52.270;10.544;2023-07-28T07:48:12;20.30;99.90
7530;DHT22;3806;52.270;10.544;2023-07-28T07:50:38;20.30;99.90
7530;DHT22;3806;52.270;10.544;2023-07-28T07:53:04;20.20;99.90
7530;DHT22;3806;52.270;10.544;2023-07-28T07:55:30;20.10;99.90
7530;DHT22;3806;52.270;10.544;2023-07-28T07:57:57;20.10;99.90
7530;DHT22;3806;52.270;10.544;2023-07-28T08:00:22;20.10;99.90
7530;DHT22;3806;52.270;10.544;2023-07-28T08:02:49;20.10;99.90
7530;DHT22;3806;52.270;10.544;2023-07-28T08:05:15;20.10;99.90
7530;DHT22;3806;52.270;10.544;2023-07-28T08:07:43;20.10;99.90
7530;DHT22;3806;52.270;10.544;2023-07-28T08:10:09;20.10;99.90
7530;DHT22;3806;52.270;10.544;2023-07-28T08:12:35;20.10;99.90
7530;DHT22;3806;52.270;10.544;2023-07-28T08:15:02;20.10;99.90
7530;DHT22;3806;52.270;10.544;2023-07-28T08:17:28;20.30;99.90
7530;DHT22;3806;52.270;10.544;2023-07-28T08:19:54;20.50;99.90
7530;DHT22;3806;52.270;10.544;2023-07-28T08:22:20;20.60;99.90
7530;DHT22;3806;52.270;10.544;2023-07-28T08:24:45;20.80;99.90
7530;DHT22;3806;52.270;10.544;2023-07-28T08:27:11;20.90;99.90
7530;DHT22;3806;52.270;10.544;2023-07-28T08:29:36;21.00;99.90
7530;DHT22;3806;52.270;10.544;2023-07-28T08:32:02;21.00;99.90
7530;DHT22;3806;52.270;10.544;2023-07-28T08:34:28;21.10;99.90
7530;DHT22;3806;52.270;10.544;2023-07-28T08:36:53;21.10;99.90
7530;DHT22;3806;52.270;10.544;2023-07-28T08:39:19;21.20;99.90
7530;DHT22;3806;52.270;10.544;2023-07-28T08:41:45;21.20;99.90
7530;DHT22;3806;52.270;10.544;2023-07-28T08:44:11;21.30;99.90
7530;DHT22;3806;52.270;10.544;2023-07-28T08:46:37;21.30;99.90
7530;DHT22;3806;52.270;10.544;2023-07-28T08:49:02;21.40;99.90
7530;DHT22;3806;52.270;10.544;2023-07-28T08:51:28;21.50;99.90
7530;DHT22;3806;52.270;10.544;2023-07-28T08:53:54;21.60;99.90
7530;DHT22;3806;52.270;10.544;2023-07-28T08:56:20;21.70;99.90
7530;DHT22;3806;52.270;10.544;2023-07-28T08:58:46;21.80;99.90
7530;DHT22;3806;52.270;10.544;2023-07-28T09:01:12;21.80;99.90
7530;DHT22;3806;52.270;10.544;2023-07-28T09:03:41;21.80;99.90
7530;DHT22;3806;52.270;10.544;2023-07-28T09:06:07;21.80;99.90
7530;DHT22;3806;52.270;10.544;2023-07-28T09:08:35;21.80;99.90
7530;DHT22;3806;52.270;10.544;2023-07-28T09:11:03;21.70;99.90
7530;DHT22;3806;52.270;10.544;2023-07-28T09:13:36;21.60;99.90
7530;DHT22;3806;52.270;10.544;2023-07-28T09:16:02;21.60;99.90
7530;DHT22;3806;52.270;10.544;2023-07-28T09:18:28;21.60;99.90
7530;DHT22;3806;52.270;10.544;2023-07-28T09:20:53;21.60;99.90
7530;DHT22;3806;52.270;10.544;2023-07-28T09:23:28;21.70;99.90
7530;DHT22;3806;52.270;10.544;2023-07-28T09:25:59;21.80;99.90
7530;DHT22;3806;52.270;10.544;2023-07-28T09:28:40;21.90;99.90
7530;DHT22;3806;52.270;10.544;2023-07-28T09:31:05;21.90;99.90
7530;DHT22;3806;52.270;10.544;2023-07-28T09:33:32;22.10;99.90
7530;DHT22;3806;52.270;10.544;2023-07-28T09:36:10;22.10;99.90
7530;DHT22;3806;52.270;10.544;2023-07-28T09:38:38;22.20;99.90
7530;DHT22;3806;52.270;10.544;2023-07-28T09:41:07;22.20;99.90
7530;DHT22;3806;52.270;10.544;2023-07-28T09:43:38;22.40;99.90
7530;DHT22;3806;52.270;10.544;2023-07-28T09:46:06;22.70;99.90
7530;DHT22;3806;52.270;10.544;2023-07-28T09:48:33;23.00;99.90
7530;DHT22;3806;52.270;10.544;2023-07-28T09:51:11;23.30;99.90
7530;DHT22;3806;52.270;10.544;2023-07-28T09:53:45;23.60;99.90
7530;DHT22;3806;52.270;10.544;2023-07-28T09:56:15;23.80;99.90
7530;DHT22;3806;52.270;10.544;2023-07-28T09:58:49;24.00;99.90
7530;DHT22;3806;52.270;10.544;2023-07-28T10:01:15;24.30;99.90
7530;DHT22;3806;52.270;10.544;2023-07-28T10:03:41;24.50;99.90
7530;DHT22;3806;52.270;10.544;2023-07-28T10:06:06;24.60;99.90
7530;DHT22;3806;52.270;10.544;2023-07-28T10:08:32;24.60;99.90
7530;DHT22;3806;52.270;10.544;2023-07-28T10:10:58;24.80;99.90
7530;DHT22;3806;52.270;10.544;2023-07-28T10:13:24;25.10;99.90
7530;DHT22;3806;52.270;10.544;2023-07-28T10:15:52;25.50;99.90
7530;DHT22;3806;52.270;10.544;2023-07-28T10:18:20;25.80;99.90
7530;DHT22;3806;52.270;10.544;2023-07-28T10:20:47;25.70;99.50
7530;DHT22;3806;52.270;10.544;2023-07-28T10:23:22;25.60;99.40
7530;DHT22;3806;52.270;10.544;2023-07-28T10:25:57;25.50;99.60
7530;DHT22;3806;52.270;10.544;2023-07-28T10:31:00;25.90;98.80
7530;DHT22;3806;52.270;10.544;2023-07-28T10:33:33;26.20;98.80
7530;DHT22;3806;52.270;10.544;2023-07-28T10:36:11;26.60;98.80
7530;DHT22;3806;52.270;10.544;2023-07-28T10:38:38;26.80;98.00
7530;DHT22;3806;52.270;10.544;2023-07-28T10:41:12;27.10;97.10
7530;DHT22;3806;52.270;10.544;2023-07-28T10:43:39;27.20;96.40
7530;DHT22;3806;52.270;10.544;2023-07-28T10:46:06;27.10;95.60
7530;DHT22;3806;52.270;10.544;2023-07-28T10:48:40;26.90;95.10
7530;DHT22;3806;52.270;10.544;2023-07-28T10:51:07;26.50;95.20
7530;DHT22;3806;52.270;10.544;2023-07-28T10:53:32;26.30;95.80
7530;DHT22;3806;52.270;10.544;2023-07-28T10:56:01;26.50;96.20
7530;DHT22;3806;52.270;10.544;2023-07-28T10:58:27;26.80;95.60
7530;DHT22;3806;52.270;10.544;2023-07-28T11:00:53;26.90;94.20
7530;DHT22;3806;52.270;10.544;2023-07-28T11:03:18;27.10;94.10
7530;DHT22;3806;52.270;10.544;2023-07-28T11:05:45;27.10;94.00
7530;DHT22;3806;52.270;10.544;2023-07-28T11:08:13;27.20;94.30
7530;DHT22;3806;52.270;10.544;2023-07-28T11:10:39;27.20;93.90
7530;DHT22;3806;52.270;10.544;2023-07-28T11:13:06;27.10;93.80
7530;DHT22;3806;52.270;10.544;2023-07-28T11:15:32;26.90;93.70
7530;DHT22;3806;52.270;10.544;2023-07-28T11:17:58;26.70;93.80
7530;DHT22;3806;52.270;10.544;2023-07-28T11:20:26;26.50;94.50
7530;DHT22;3806;52.270;10.544;2023-07-28T11:23:00;26.40;94.10
7530;DHT22;3806;52.270;10.544;2023-07-28T11:25:28;26.20;94.10
7530;DHT22;3806;52.270;10.544;2023-07-28T11:27:55;26.10;94.50
7530;DHT22;3806;52.270;10.544;2023-07-28T11:30:22;26.10;95.00
7530;DHT22;3806;52.270;10.544;2023-07-28T11:32:50;26.20;95.00
7530;DHT22;3806;52.270;10.544;2023-07-28T11:35:18;26.40;95.00
7530;DHT22;3806;52.270;10.544;2023-07-28T11:37:46;26.60;94.20
7530;DHT22;3806;52.270;10.544;2023-07-28T11:40:14;26.60;93.80
7530;DHT22;3806;52.270;10.544;2023-07-28T11:42:44;26.60;93.40
7530;DHT22;3806;52.270;10.544;2023-07-28T11:45:10;26.60;93.20
7530;DHT22;3806;52.270;10.544;2023-07-28T11:47:37;26.50;93.20
7530;DHT22;3806;52.270;10.544;2023-07-28T11:50:03;26.50;93.40
7530;DHT22;3806;52.270;10.544;2023-07-28T11:52:36;26.30;93.00
7530;DHT22;3806;52.270;10.544;2023-07-28T11:55:02;26.20;92.70
7530;DHT22;3806;52.270;10.544;2023-07-28T11:57:30;26.00;93.00
7530;DHT22;3806;52.270;10.544;2023-07-28T12:00:01;25.90;93.90
7530;DHT22;3806;52.270;10.544;2023-07-28T12:02:31;26.00;93.90
7530;DHT22;3806;52.270;10.544;2023-07-28T12:04:58;26.00;93.90
7530;DHT22;3806;52.270;10.544;2023-07-28T12:07:29;26.00;93.50
7530;DHT22;3806;52.270;10.544;2023-07-28T12:10:03;26.00;93.90
7530;DHT22;3806;52.270;10.544;2023-07-28T12:12:43;26.00;93.50
7530;DHT22;3806;52.270;10.544;2023-07-28T12:15:26;26.40;93.50
7530;DHT22;3806;52.270;10.544;2023-07-28T12:18:14;26.70;93.00
7530;DHT22;3806;52.270;10.544;2023-07-28T12:20:48;26.90;92.40
7530;DHT22;3806;52.270;10.544;2023-07-28T12:23:16;26.80;91.80
7530;DHT22;3806;52.270;10.544;2023-07-28T12:25:42;26.70;91.80
7530;DHT22;3806;52.270;10.544;2023-07-28T12:28:09;26.70;91.80
7530;DHT22;3806;52.270;10.544;2023-07-28T12:30:36;26.60;91.70
7530;DHT22;3806;52.270;10.544;2023-07-28T12:33:05;26.70;91.70
7530;DHT22;3806;52.270;10.544;2023-07-28T12:35:32;26.90;91.90
7530;DHT22;3806;52.270;10.544;2023-07-28T12:38:03;27.00;91.20
7530;DHT22;3806;52.270;10.544;2023-07-28T12:40:33;27.00;90.90
7530;DHT22;3806;52.270;10.544;2023-07-28T12:43:00;27.00;91.10
7530;DHT22;3806;52.270;10.544;2023-07-28T12:45:26;26.80;90.80
7530;DHT22;3806;52.270;10.544;2023-07-28T12:47:52;26.80;91.30
7530;DHT22;3806;52.270;10.544;2023-07-28T12:50:19;26.90;91.00
7530;DHT22;3806;52.270;10.544;2023-07-28T12:52:46;27.00;90.90
7530;DHT22;3806;52.270;10.544;2023-07-28T12:55:12;27.10;91.10
7530;DHT22;3806;52.270;10.544;2023-07-28T12:57:37;27.00;90.90
7530;DHT22;3806;52.270;10.544;2023-07-28T13:00:03;27.00;90.70
7530;DHT22;3806;52.270;10.544;2023-07-28T13:02:38;27.00;90.70
7530;DHT22;3806;52.270;10.544;2023-07-28T13:05:04;26.90;90.50
7530;DHT22;3806;52.270;10.544;2023-07-28T13:07:30;26.90;89.70
7530;DHT22;3806;52.270;10.544;2023-07-28T13:09:55;26.90;90.00
7530;DHT22;3806;52.270;10.544;2023-07-28T13:12:21;26.90;89.80
7530;DHT22;3806;52.270;10.544;2023-07-28T13:14:46;26.90;90.10
7530;DHT22;3806;52.270;10.544;2023-07-28T13:17:12;26.80;90.00
7530;DHT22;3806;52.270;10.544;2023-07-28T13:19:42;26.80;90.40
7530;DHT22;3806;52.270;10.544;2023-07-28T13:22:08;26.90;90.60
7530;DHT22;3806;52.270;10.544;2023-07-28T13:24:34;27.00;90.70
7530;DHT22;3806;52.270;10.544;2023-07-28T13:26:59;27.00;90.40
7530;DHT22;3806;52.270;10.544;2023-07-28T13:29:25;26.90;90.10
7530;DHT22;3806;52.270;10.544;2023-07-28T13:31:50;26.80;90.20
7530;DHT22;3806;52.270;10.544;2023-07-28T13:34:16;26.80;90.80
7530;DHT22;3806;52.270;10.544;2023-07-28T13:36:41;26.80;90.90
7530;DHT22;3806;52.270;10.544;2023-07-28T13:39:09;26.80;91.10
7530;DHT22;3806;52.270;10.544;2023-07-28T13:41:34;26.80;90.90
7530;DHT22;3806;52.270;10.544;2023-07-28T13:44:00;26.80;91.00
7530;DHT22;3806;52.270;10.544;2023-07-28T13:46:25;26.70;90.60
7530;DHT22;3806;52.270;10.544;2023-07-28T13:48:51;26.70;90.60
7530;DHT22;3806;52.270;10.544;2023-07-28T13:51:17;26.70;90.50
7530;DHT22;3806;52.270;10.544;2023-07-28T13:53:42;26.70;90.00
7530;DHT22;3806;52.270;10.544;2023-07-28T13:56:08;26.70;89.40
7530;DHT22;3806;52.270;10.544;2023-07-28T13:58:33;26.60;90.00
7530;DHT22;3806;52.270;10.544;2023-07-28T14:00:59;26.60;90.40
7530;DHT22;3806;52.270;10.544;2023-07-28T14:03:24;26.60;90.30
7530;DHT22;3806;52.270;10.544;2023-07-28T14:05:50;26.80;90.10
7530;DHT22;3806;52.270;10.544;2023-07-28T14:08:15;26.90;90.00
7530;DHT22;3806;52.270;10.544;2023-07-28T14:10:45;26.90;87.90
7530;DHT22;3806;52.270;10.544;2023-07-28T14:13:10;26.90;89.30
7530;DHT22;3806;52.270;10.544;2023-07-28T14:15:36;26.90;88.30
7530;DHT22;3806;52.270;10.544;2023-07-28T14:18:01;26.90;90.00
7530;DHT22;3806;52.270;10.544;2023-07-28T14:20:27;26.90;88.40
7530;DHT22;3806;52.270;10.544;2023-07-28T14:22:53;26.90;87.90
7530;DHT22;3806;52.270;10.544;2023-07-28T14:25:18;26.90;88.00
7530;DHT22;3806;52.270;10.544;2023-07-28T14:27:44;26.80;87.70
7530;DHT22;3806;52.270;10.544;2023-07-28T14:30:10;26.70;87.00
7530;DHT22;3806;52.270;10.544;2023-07-28T14:32:36;26.70;87.30
7530;DHT22;3806;52.270;10.544;2023-07-28T14:35:01;26.60;87.30
7530;DHT22;3806;52.270;10.544;2023-07-28T14:37:27;26.50;88.40
7530;DHT22;3806;52.270;10.544;2023-07-28T14:39:53;26.50;87.90
7530;DHT22;3806;52.270;10.544;2023-07-28T14:42:18;26.40;88.60
7530;DHT22;3806;52.270;10.544;2023-07-28T14:44:44;26.30;89.00
7530;DHT22;3806;52.270;10.544;2023-07-28T14:47:09;26.20;88.80
7530;DHT22;3806;52.270;10.544;2023-07-28T14:49:35;26.10;89.00
7530;DHT22;3806;52.270;10.544;2023-07-28T14:52:00;26.00;89.70
7530;DHT22;3806;52.270;10.544;2023-07-28T14:54:26;26.00;90.30
7530;DHT22;3806;52.270;10.544;2023-07-28T14:56:51;26.00;90.40
7530;DHT22;3806;52.270;10.544;2023-07-28T14:59:17;26.10;90.40
7530;DHT22;3806;52.270;10.544;2023-07-28T15:01:43;26.10;90.40
7530;DHT22;3806;52.270;10.544;2023-07-28T15:04:09;26.10;90.20
7530;DHT22;3806;52.270;10.544;2023-07-28T15:06:36;26.00;90.20
7530;DHT22;3806;52.270;10.544;2023-07-28T15:09:02;26.00;90.40
7530;DHT22;3806;52.270;10.544;2023-07-28T15:11:27;26.10;90.60
7530;DHT22;3806;52.270;10.544;2023-07-28T15:13:54;26.10;90.70
7530;DHT22;3806;52.270;10.544;2023-07-28T15:16:19;26.10;90.70
7530;DHT22;3806;52.270;10.544;2023-07-28T15:18:45;26.20;90.70
7530;DHT22;3806;52.270;10.544;2023-07-28T15:21:10;26.20;90.50
7530;DHT22;3806;52.270;10.544;2023-07-28T15:23:37;26.20;90.30
7530;DHT22;3806;52.270;10.544;2023-07-28T15:26:02;26.30;90.10
7530;DHT22;3806;52.270;10.544;2023-07-28T15:28:28;26.40;90.00
7530;DHT22;3806;52.270;10.544;2023-07-28T15:30:53;26.40;89.40
7530;DHT22;3806;52.270;10.544;2023-07-28T15:33:21;26.40;88.50
7530;DHT22;3806;52.270;10.544;2023-07-28T15:35:53;26.50;88.80
7530;DHT22;3806;52.270;10.544;2023-07-28T15:38:18;26.40;88.50
7530;DHT22;3806;52.270;10.544;2023-07-28T15:40:44;26.50;89.20
7530;DHT22;3806;52.270;10.544;2023-07-28T15:43:09;26.50;89.50
7530;DHT22;3806;52.270;10.544;2023-07-28T15:45:35;26.50;90.00